Time;durP1;ratioP1;P1;durP2;ratioP2;P2;SDS_P1;SDS_P2;PMS_P1;PMS_P2;Temp;Humidity;BMP_temperature;BMP_pressure;BME280_temperature;BME280_humidity;BME280_pressure;Samples;Min_cycle;Max_cycle;Signal;HPM_P1;HPM_P2
2022/01/15 00:00:37;;;;;;;235.15;23.63;;;5.20;99.90;;;;;;5053898;28;20089;-81
2022/01/15 00:03:08;;;;;;;370.02;79.72;;;5.20;99.90;;;;;;5071285;28;20483;-78
2022/01/15 00:05:34;;;;;;;284.05;25.02;;;5.20;99.90;;;;;;5071097;28;20412;-78
2022/01/15 00:08:01;;;;;;;349.98;42.25;;;5.20;99.90;;;;;;5070888;28;20123;-82
2022/01/15 00:10:28;;;;;;;411.90;20.25;;;5.20;99.90;;;;;;5070890;28;20127;-79
2022/01/15 00:12:59;;;;;;;407.27;30.45;;;5.10;99.90;;;;;;5071274;28;20483;-78
2022/01/15 00:15:30;;;;;;;263.92;24.50;;;5.20;99.90;;;;;;5071181;28;20055;-82
2022/01/15 00:18:01;;;;;;;224.40;17.05;;;5.20;99.90;;;;;;5070811;28;20041;-78
2022/01/15 00:20:29;;;;;;;264.15;15.50;;;5.20;99.90;;;;;;5054576;28;20157;-79
2022/01/15 00:22:56;;;;;;;293.42;17.13;;;5.20;99.90;;;;;;5054178;28;20483;-78
2022/01/15 00:25:24;;;;;;;407.60;24.20;;;5.20;99.90;;;;;;5054167;28;20076;-81
2022/01/15 00:27:51;;;;;;;290.77;18.15;;;5.20;99.90;;;;;;5070872;28;20037;-78
2022/01/15 00:30:17;;;;;;;313.48;19.55;;;5.20;99.90;;;;;;5053940;28;20044;-79
2022/01/15 00:32:44;;;;;;;278.38;17.08;;;5.40;99.90;;;;;;5070962;28;20487;-82
2022/01/15 00:35:13;;;;;;;194.80;15.32;;;5.30;99.90;;;;;;5070971;28;20057;-82
2022/01/15 00:37:42;;;;;;;267.77;18.55;;;5.30;99.90;;;;;;5070516;28;20048;-82
2022/01/15 00:40:13;;;;;;;198.48;14.63;;;5.30;99.90;;;;;;5054036;28;20153;-82
2022/01/15 00:42:40;;;;;;;255.57;16.13;;;5.30;99.90;;;;;;5054214;28;20091;-82
2022/01/15 00:45:10;;;;;;;141.00;11.75;;;5.40;99.90;;;;;;5055250;28;20041;-82
2022/01/15 00:47:36;;;;;;;88.20;11.13;;;5.30;99.90;;;;;;5054081;28;20041;-82
2022/01/15 00:50:04;;;;;;;176.10;14.15;;;5.20;99.90;;;;;;5071168;28;20055;-82
2022/01/15 00:52:30;;;;;;;203.13;14.32;;;5.30;99.90;;;;;;5070339;28;20047;-78
2022/01/15 00:54:56;;;;;;;188.45;14.52;;;5.30;99.90;;;;;;5037561;28;20044;-78
2022/01/15 00:57:22;;;;;;;132.05;12.88;;;5.40;99.90;;;;;;5070332;28;20060;-78
2022/01/15 00:59:49;;;;;;;53.25;8.50;;;5.30;99.90;;;;;;5070824;28;20066;-78
2022/01/15 01:02:15;;;;;;;66.10;9.25;;;5.30;99.90;;;;;;5070660;28;20044;-79
2022/01/15 01:04:41;;;;;;;57.28;8.57;;;5.30;99.90;;;;;;5054102;28;20041;-78
2022/01/15 01:07:06;;;;;;;125.78;12.20;;;5.30;99.90;;;;;;5070822;28;20094;-82
2022/01/15 01:09:51;;;;;;;145.38;12.95;;;5.30;99.90;;;;;;5054025;28;20044;-80
2022/01/15 01:12:29;;;;;;;272.50;15.15;;;5.30;99.90;;;;;;5056597;28;20037;-79
2022/01/15 01:23:10;;;;;;;163.88;11.25;;;5.20;99.90;;;;;;5038828;28;20087;-82
2022/01/15 01:25:41;;;;;;;102.63;10.07;;;5.20;99.90;;;;;;5054208;28;20045;-82
2022/01/15 01:28:15;;;;;;;104.28;9.40;;;5.30;99.90;;;;;;5054853;28;20486;-81
2022/01/15 01:30:48;;;;;;;89.05;9.20;;;5.20;99.90;;;;;;5058384;28;20045;-78
2022/01/15 01:33:36;;;;;;;114.93;10.85;;;5.20;99.90;;;;;;5074479;28;20076;-78
2022/01/15 01:38:33;;;;;;;148.25;10.52;;;5.20;99.90;;;;;;5041344;28;20139;-82
2022/01/15 01:41:00;;;;;;;131.45;10.13;;;5.20;99.90;;;;;;5041896;28;20093;-78
2022/01/15 01:43:49;;;;;;;83.00;9.88;;;5.30;99.90;;;;;;5074255;28;20080;-79
2022/01/15 01:48:42;;;;;;;96.65;10.50;;;5.20;99.90;;;;;;5074223;28;20049;-82
2022/01/15 01:51:08;;;;;;;97.88;9.35;;;5.20;99.90;;;;;;5041322;28;20541;-82
2022/01/15 01:53:35;;;;;;;65.50;8.40;;;5.20;99.90;;;;;;5073969;28;20053;-81
2022/01/15 01:56:02;;;;;;;52.88;7.38;;;5.20;99.90;;;;;;5057709;28;20406;-79
2022/01/15 01:58:27;;;;;;;55.83;7.75;;;5.20;99.90;;;;;;5040974;28;20044;-82
2022/01/15 02:00:53;;;;;;;32.92;6.47;;;5.20;99.90;;;;;;5057528;28;20158;-79
2022/01/15 02:03:19;;;;;;;41.47;6.40;;;5.20;99.90;;;;;;5074055;28;20149;-81
2022/01/15 02:05:45;;;;;;;61.78;8.32;;;5.20;99.90;;;;;;5073828;28;20041;-79
2022/01/15 02:08:11;;;;;;;37.10;6.50;;;5.30;99.90;;;;;;5040559;28;20117;-78
2022/01/15 02:10:36;;;;;;;44.88;7.88;;;5.20;99.90;;;;;;5056995;28;20041;-81
2022/01/15 02:13:02;;;;;;;36.80;6.63;;;5.20;99.90;;;;;;5057017;28;20040;-81
2022/01/15 02:15:28;;;;;;;81.90;9.27;;;5.30;99.90;;;;;;5057241;28;20392;-79
2022/01/15 02:17:54;;;;;;;83.82;9.98;;;5.30;99.90;;;;;;5056943;28;20128;-79
2022/01/15 02:25:43;;;;;;;24.58;5.10;;;5.10;99.90;;;;;;5073433;28;20102;-82
2022/01/15 02:28:09;;;;;;;22.23;4.72;;;5.20;99.90;;;;;;5057006;28;20044;-78
2022/01/15 02:30:35;;;;;;;22.15;3.95;;;5.20;99.90;;;;;;5056664;28;20398;-82
2022/01/15 02:33:01;;;;;;;23.50;4.22;;;5.20;99.90;;;;;;5040563;28;20036;-81
2022/01/15 02:35:28;;;;;;;18.35;3.83;;;5.20;99.90;;;;;;5040163;28;20044;-79
2022/01/15 02:37:54;;;;;;;14.15;3.53;;;5.20;99.90;;;;;;5073474;28;20049;-82
2022/01/15 02:40:20;;;;;;;25.35;4.50;;;5.10;99.90;;;;;;5072807;28;20044;-81
2022/01/15 02:42:45;;;;;;;14.90;3.42;;;5.20;99.90;;;;;;5056851;28;20380;-82
2022/01/15 02:45:19;;;;;;;19.20;4.05;;;5.20;99.90;;;;;;5039746;28;20044;-79
2022/01/15 02:48:00;;;;;;;20.92;4.20;;;5.10;99.90;;;;;;5041279;28;20565;-78
2022/01/15 02:50:26;;;;;;;13.50;3.58;;;5.30;99.90;;;;;;5041880;28;20080;-82
2022/01/15 02:52:51;;;;;;;19.42;4.05;;;5.20;99.90;;;;;;5039609;28;20079;-82
2022/01/15 02:55:17;;;;;;;14.27;3.38;;;5.10;99.90;;;;;;5056500;28;20121;-82
2022/01/15 02:57:43;;;;;;;13.32;3.50;;;5.10;99.90;;;;;;5039741;28;20045;-79
2022/01/15 03:00:09;;;;;;;12.00;2.83;;;5.10;99.90;;;;;;5056142;28;20098;-82
2022/01/15 03:02:35;;;;;;;12.50;3.20;;;5.10;99.90;;;;;;5056046;28;20051;-79
2022/01/15 03:05:01;;;;;;;14.75;2.85;;;5.10;99.90;;;;;;5055986;28;20040;-79
2022/01/15 03:07:26;;;;;;;13.45;3.28;;;5.10;99.90;;;;;;5056115;28;20490;-79
2022/01/15 03:09:52;;;;;;;18.90;3.45;;;5.00;99.90;;;;;;5072603;28;20056;-78
2022/01/15 03:12:18;;;;;;;21.70;3.65;;;5.10;99.90;;;;;;5039456;28;20044;-79
2022/01/15 03:14:47;;;;;;;16.80;3.55;;;5.00;99.90;;;;;;5055934;28;20123;-79
2022/01/15 03:17:12;;;;;;;17.08;3.88;;;5.00;99.90;;;;;;5039790;28;20040;-82
2022/01/15 03:19:38;;;;;;;18.40;4.00;;;5.00;99.90;;;;;;5055630;28;20105;-79
2022/01/15 03:22:05;;;;;;;27.33;4.68;;;4.90;99.90;;;;;;5072447;28;20041;-81
2022/01/15 03:24:30;;;;;;;26.65;4.28;;;4.90;99.90;;;;;;5072157;28;20067;-81
2022/01/15 03:26:56;;;;;;;17.30;3.80;;;4.90;99.90;;;;;;5055692;28;20092;-79
2022/01/15 03:29:22;;;;;;;26.58;4.07;;;4.90;99.90;;;;;;5039014;28;20040;-79
2022/01/15 03:31:47;;;;;;;176.77;10.73;;;4.90;99.90;;;;;;5055594;28;20055;-82
2022/01/15 03:34:13;;;;;;;155.10;11.20;;;4.80;99.90;;;;;;5055829;28;20132;-78
2022/01/15 03:36:39;;;;;;;44.22;6.68;;;4.80;99.90;;;;;;5072189;28;20041;-80
2022/01/15 03:39:04;;;;;;;77.55;7.63;;;4.90;99.90;;;;;;5055468;28;20101;-82
2022/01/15 03:41:30;;;;;;;44.58;6.57;;;5.00;99.90;;;;;;5072327;28;20044;-81
2022/01/15 03:43:56;;;;;;;35.08;5.28;;;4.90;99.90;;;;;;5038723;28;20052;-78
2022/01/15 03:46:22;;;;;;;31.50;7.18;;;4.90;99.90;;;;;;5039227;28;20498;-78
2022/01/15 03:48:47;;;;;;;25.20;5.22;;;4.90;99.90;;;;;;5072394;28;20052;-79
2022/01/15 03:51:17;;;;;;;16.60;4.18;;;4.90;99.90;;;;;;5054979;28;20048;-81
2022/01/15 03:53:43;;;;;;;17.52;3.95;;;4.90;99.90;;;;;;5054661;28;20067;-82
2022/01/15 03:56:08;;;;;;;23.42;5.30;;;4.90;99.90;;;;;;5055505;28;20052;-78
2022/01/15 03:58:34;;;;;;;16.92;4.10;;;4.90;99.90;;;;;;5055243;28;20131;-78
2022/01/15 04:01:00;;;;;;;14.40;3.15;;;5.00;99.90;;;;;;5071799;28;20170;-82
2022/01/15 04:03:26;;;;;;;20.70;4.22;;;5.00;99.90;;;;;;5055043;28;20036;-82
2022/01/15 04:05:51;;;;;;;13.45;3.40;;;5.00;99.90;;;;;;5054882;28;20413;-80
2022/01/15 04:08:17;;;;;;;13.40;3.05;;;5.10;99.90;;;;;;5055375;28;20053;-82
2022/01/15 04:10:43;;;;;;;14.10;2.80;;;4.90;99.90;;;;;;5054764;28;20045;-81
2022/01/15 04:13:09;;;;;;;13.45;2.67;;;5.00;99.90;;;;;;5038603;28;20063;-82
2022/01/15 04:15:35;;;;;;;14.07;2.92;;;5.00;99.90;;;;;;5038562;28;20286;-79
2022/01/15 04:18:01;;;;;;;14.82;3.20;;;5.00;99.90;;;;;;5055226;28;20148;-78
2022/01/15 04:20:27;;;;;;;14.85;3.08;;;5.00;99.90;;;;;;5071568;28;20136;-79
2022/01/15 04:22:53;;;;;;;14.43;3.63;;;5.20;99.90;;;;;;5038362;28;20070;-79
2022/01/15 04:25:22;;;;;;;12.65;3.35;;;5.00;99.90;;;;;;5054953;28;20060;-78
2022/01/15 04:27:48;;;;;;;20.52;3.78;;;5.00;99.90;;;;;;5038453;28;20048;-81
2022/01/15 04:30:15;;;;;;;17.75;3.30;;;5.00;99.90;;;;;;5054806;28;20056;-78
2022/01/15 04:32:41;;;;;;;23.05;4.05;;;5.00;99.90;;;;;;5055265;28;20434;-78
2022/01/15 04:35:08;;;;;;;15.30;3.75;;;5.00;99.90;;;;;;5054875;28;20044;-82
2022/01/15 04:37:44;;;;;;;23.35;3.65;;;5.00;99.90;;;;;;5054907;28;20448;-78
2022/01/15 04:40:11;;;;;;;17.05;3.30;;;5.00;99.90;;;;;;5056005;28;20052;-79
2022/01/15 04:42:37;;;;;;;14.48;3.13;;;5.00;99.90;;;;;;5071373;28;20047;-82
2022/01/15 04:45:07;;;;;;;11.48;2.70;;;5.00;99.90;;;;;;5071539;28;20052;-78
2022/01/15 04:47:34;;;;;;;22.55;3.20;;;5.00;99.90;;;;;;5071213;28;20090;-78
2022/01/15 04:50:01;;;;;;;25.20;3.55;;;5.10;99.90;;;;;;5054875;28;20047;-78
2022/01/15 04:52:26;;;;;;;13.50;3.25;;;5.00;99.90;;;;;;5071202;28;20044;-78
2022/01/15 04:54:52;;;;;;;15.30;3.42;;;5.00;99.90;;;;;;5054834;28;20509;-79
2022/01/15 04:57:18;;;;;;;16.45;3.22;;;5.00;99.90;;;;;;5054498;28;20056;-82
2022/01/15 04:59:44;;;;;;;14.40;2.90;;;5.00;99.90;;;;;;5071587;28;20098;-78
2022/01/15 05:02:10;;;;;;;16.80;3.38;;;5.00;99.90;;;;;;5037953;28;20044;-81
2022/01/15 05:04:35;;;;;;;19.02;4.10;;;5.00;99.90;;;;;;5074407;28;20482;-79
2022/01/15 05:07:01;;;;;;;19.25;4.07;;;5.00;99.90;;;;;;5058315;28;20043;-79
2022/01/15 05:09:27;;;;;;;16.20;4.05;;;5.00;99.90;;;;;;5058361;28;20079;-82
2022/01/15 05:12:24;;;;;;;18.23;3.97;;;4.90;99.90;;;;;;5074844;28;20097;-78
2022/01/15 05:14:41;;;;;;;25.02;5.85;;;5.00;99.90;;;;;;5073706;28;20045;-82
2022/01/15 05:17:06;;;;;;;14.27;4.00;;;5.00;99.90;;;;;;5058198;28;20094;-79
2022/01/15 05:19:33;;;;;;;17.67;4.95;;;5.00;99.90;;;;;;5074742;28;20552;-82
2022/01/15 05:22:00;;;;;;;17.15;4.95;;;5.00;99.90;;;;;;5041913;28;20044;-79
2022/01/15 05:24:27;;;;;;;22.95;6.13;;;5.00;99.90;;;;;;5041388;28;20048;-82
2022/01/15 05:26:54;;;;;;;26.38;6.50;;;5.00;99.90;;;;;;5041502;28;20059;-79
2022/01/15 05:29:20;;;;;;;17.63;5.30;;;5.00;99.90;;;;;;5074832;28;20495;-79
2022/01/15 05:31:45;;;;;;;31.60;6.70;;;5.00;99.90;;;;;;5058008;28;20086;-79
2022/01/15 05:34:11;;;;;;;27.83;7.90;;;5.00;99.90;;;;;;5074577;28;20086;-82
2022/01/15 05:36:39;;;;;;;31.33;6.20;;;5.00;99.90;;;;;;5041462;28;20040;-79
2022/01/15 05:39:05;;;;;;;35.45;7.05;;;5.00;99.90;;;;;;5057782;28;20044;-82
2022/01/15 05:41:32;;;;;;;25.13;6.22;;;5.00;99.90;;;;;;5057640;28;20048;-81
2022/01/15 05:44:01;;;;;;;20.67;5.80;;;5.00;99.90;;;;;;5074312;28;20074;-79
2022/01/15 05:46:28;;;;;;;27.73;6.22;;;5.10;99.90;;;;;;5041671;28;20048;-82
2022/01/15 05:48:54;;;;;;;18.20;5.40;;;5.00;99.90;;;;;;5057871;28;20403;-79
2022/01/15 05:51:20;;;;;;;20.75;5.65;;;5.00;99.90;;;;;;5057628;28;20036;-79
2022/01/15 05:53:45;;;;;;;19.92;5.35;;;5.00;99.90;;;;;;5057440;28;20086;-82
2022/01/15 05:56:11;;;;;;;19.08;4.70;;;4.90;99.90;;;;;;5057430;28;20043;-78
2022/01/15 05:58:37;;;;;;;17.13;5.53;;;4.90;99.90;;;;;;5074145;28;20094;-78
2022/01/15 06:01:03;;;;;;;22.95;5.75;;;4.90;99.90;;;;;;5074014;28;20483;-82
2022/01/15 06:03:28;;;;;;;19.30;5.28;;;4.90;99.90;;;;;;5057405;28;20066;-81
2022/01/15 06:05:54;;;;;;;22.00;5.15;;;4.80;99.90;;;;;;5074268;28;20041;-79
2022/01/15 06:08:20;;;;;;;16.70;4.75;;;4.90;99.90;;;;;;5057371;28;20041;-82
2022/01/15 06:10:45;;;;;;;25.58;6.25;;;4.90;99.90;;;;;;5073688;28;20051;-81
2022/01/15 06:13:11;;;;;;;19.55;5.38;;;4.90;99.90;;;;;;5073716;28;20040;-79
2022/01/15 06:15:37;;;;;;;22.42;4.65;;;4.90;99.90;;;;;;5039924;28;20066;-82
2022/01/15 06:18:03;;;;;;;19.13;5.60;;;4.90;99.90;;;;;;5040372;28;20041;-82
2022/01/15 06:20:29;;;;;;;17.98;4.82;;;4.90;99.90;;;;;;5073796;28;20110;-81
2022/01/15 06:22:54;;;;;;;19.63;5.00;;;4.80;99.90;;;;;;5040478;28;20545;-82
2022/01/15 06:25:20;;;;;;;20.45;4.63;;;4.80;99.90;;;;;;5057052;28;20052;-79
2022/01/15 06:27:46;;;;;;;21.63;4.88;;;4.80;99.90;;;;;;5056993;28;20550;-79
2022/01/15 06:30:12;;;;;;;25.48;5.60;;;4.90;99.90;;;;;;5073526;28;20049;-82
2022/01/15 06:32:37;;;;;;;27.80;5.82;;;4.90;99.90;;;;;;5056938;28;20106;-82
2022/01/15 06:35:06;;;;;;;25.77;5.38;;;4.80;99.90;;;;;;5056663;28;20085;-79
2022/01/15 06:37:32;;;;;;;22.38;5.45;;;4.90;99.90;;;;;;5056731;28;20045;-81
2022/01/15 06:39:58;;;;;;;21.95;5.25;;;4.80;99.90;;;;;;5040185;28;20040;-78
2022/01/15 06:42:23;;;;;;;19.33;4.43;;;4.90;99.90;;;;;;5056632;28;20040;-81
2022/01/15 06:44:49;;;;;;;21.95;5.07;;;4.80;99.90;;;;;;5040087;28;20376;-79
2022/01/15 06:47:14;;;;;;;28.35;5.53;;;4.80;99.90;;;;;;5073195;28;20075;-79
2022/01/15 06:49:40;;;;;;;10.40;3.97;;;4.90;99.90;;;;;;5056494;28;20051;-81
2022/01/15 06:52:06;;;;;;;13.32;5.22;;;4.80;99.90;;;;;;5056342;28;20088;-78
2022/01/15 06:54:32;;;;;;;13.13;4.97;;;4.80;99.90;;;;;;5072785;28;20052;-78
2022/01/15 06:56:58;;;;;;;13.95;5.03;;;4.80;99.90;;;;;;5072944;28;20041;-78
2022/01/15 06:59:23;;;;;;;20.80;6.03;;;5.10;99.90;;;;;;5039723;28;20043;-81
2022/01/15 07:01:49;;;;;;;22.42;6.30;;;4.70;99.90;;;;;;5039647;28;20040;-78
2022/01/15 07:04:15;;;;;;;21.23;6.53;;;4.70;99.90;;;;;;5056136;28;20131;-78
2022/01/15 07:06:40;;;;;;;27.17;6.47;;;4.80;99.90;;;;;;5039959;28;20048;-78
2022/01/15 07:09:06;;;;;;;18.38;6.20;;;4.80;99.90;;;;;;5039396;28;20044;-82
2022/01/15 07:11:32;;;;;;;21.00;6.32;;;4.80;99.90;;;;;;5056115;28;20051;-80
2022/01/15 07:13:57;;;;;;;26.00;7.00;;;4.80;99.90;;;;;;5056336;28;20080;-81
2022/01/15 07:16:23;;;;;;;19.15;6.28;;;4.80;99.90;;;;;;5072561;28;20052;-79
2022/01/15 07:18:49;;;;;;;21.88;6.82;;;4.80;99.90;;;;;;5072407;28;20128;-78
2022/01/15 07:21:15;;;;;;;23.27;6.75;;;4.80;99.90;;;;;;5039292;28;20494;-82
2022/01/15 07:23:40;;;;;;;26.63;7.15;;;4.80;99.90;;;;;;5055360;28;20115;-78
2022/01/15 07:26:06;;;;;;;23.05;7.25;;;4.90;99.90;;;;;;5056063;28;20395;-78
2022/01/15 07:28:32;;;;;;;27.58;7.68;;;5.00;99.90;;;;;;5071512;28;20044;-78
2022/01/15 07:30:59;;;;;;;20.95;6.85;;;4.80;99.90;;;;;;5072365;28;20542;-82
2022/01/15 07:33:25;;;;;;;18.83;5.95;;;4.90;99.90;;;;;;5072268;28;20127;-78
2022/01/15 07:35:51;;;;;;;18.95;5.78;;;5.10;99.90;;;;;;5072141;28;20601;-78
2022/01/15 07:38:19;;;;;;;12.57;4.40;;;4.70;99.90;;;;;;5055702;28;20059;-78
2022/01/15 07:40:46;;;;;;;10.10;3.75;;;4.80;99.90;;;;;;5039223;28;20044;-82
2022/01/15 07:43:12;;;;;;;9.18;3.80;;;4.70;99.90;;;;;;5072266;28;20514;-78
2022/01/15 07:45:38;;;;;;;9.65;3.88;;;4.80;99.90;;;;;;5038620;28;20060;-82
2022/01/15 07:48:04;;;;;;;8.57;3.20;;;4.60;99.90;;;;;;5072146;28;20045;-82
2022/01/15 07:50:29;;;;;;;11.32;4.30;;;4.60;99.90;;;;;;5071643;28;20048;-82
2022/01/15 07:52:57;;;;;;;11.70;3.83;;;4.70;99.90;;;;;;5055437;28;20036;-82
2022/01/15 07:55:24;;;;;;;13.23;4.10;;;4.70;99.90;;;;;;5055149;28;20059;-78
2022/01/15 07:57:51;;;;;;;19.60;5.45;;;4.70;99.90;;;;;;5055372;28;20398;-81
2022/01/15 08:00:18;;;;;;;17.63;4.40;;;4.90;99.90;;;;;;5071502;28;20040;-78
2022/01/15 08:02:44;;;;;;;15.43;4.70;;;4.70;99.90;;;;;;5038624;28;20535;-82
2022/01/15 08:05:11;;;;;;;13.77;4.50;;;4.80;99.90;;;;;;5071683;28;20088;-78
2022/01/15 08:07:38;;;;;;;17.10;6.05;;;4.70;99.90;;;;;;5054881;28;20114;-81
2022/01/15 08:10:06;;;;;;;15.40;5.53;;;4.80;99.90;;;;;;5054874;28;20124;-82
2022/01/15 08:12:33;;;;;;;12.88;4.28;;;4.70;99.90;;;;;;5071549;28;20040;-82
2022/01/15 08:14:58;;;;;;;12.10;4.25;;;4.80;99.90;;;;;;5054860;28;20088;-79
2022/01/15 08:17:24;;;;;;;11.38;4.93;;;4.80;99.90;;;;;;5071837;28;20036;-78
2022/01/15 08:19:50;;;;;;;15.65;5.82;;;4.80;99.90;;;;;;5054887;28;20040;-81
2022/01/15 08:22:16;;;;;;;14.20;5.55;;;4.80;99.90;;;;;;5055015;28;20491;-82
2022/01/15 08:24:42;;;;;;;19.88;6.88;;;4.80;99.90;;;;;;5071485;28;20521;-82
2022/01/15 08:27:07;;;;;;;17.42;5.53;;;4.80;99.90;;;;;;5038166;28;20040;-80
2022/01/15 08:29:33;;;;;;;12.23;4.53;;;4.90;99.90;;;;;;5038434;28;20068;-81
2022/01/15 08:31:59;;;;;;;14.85;5.68;;;4.90;99.90;;;;;;5054603;28;20127;-82
2022/01/15 08:34:25;;;;;;;19.23;6.40;;;5.00;99.90;;;;;;5038330;28;20406;-78
2022/01/15 08:36:50;;;;;;;16.60;5.95;;;4.90;99.90;;;;;;5054703;28;20051;-80
2022/01/15 08:39:16;;;;;;;14.93;5.90;;;4.80;99.90;;;;;;5057034;28;20041;-82
2022/01/15 08:41:48;;;;;;;16.30;5.85;;;4.90;99.90;;;;;;5075472;28;20075;-79
2022/01/15 08:44:15;;;;;;;17.33;6.40;;;4.90;99.90;;;;;;5075758;28;20081;-80
2022/01/15 08:46:41;;;;;;;15.50;5.88;;;4.90;99.90;;;;;;5075469;28;20052;-79
2022/01/15 08:49:06;;;;;;;20.80;6.43;;;4.90;99.90;;;;;;5075522;28;20048;-82
2022/01/15 08:51:32;;;;;;;16.23;5.47;;;5.00;99.90;;;;;;5041617;28;20041;-78
2022/01/15 08:53:58;;;;;;;20.48;7.03;;;4.90;99.90;;;;;;5074329;28;20072;-79
2022/01/15 08:56:24;;;;;;;24.80;8.18;;;5.00;99.90;;;;;;5074560;28;20131;-78
2022/01/15 08:58:49;;;;;;;21.30;7.65;;;5.00;99.90;;;;;;5041771;28;20060;-82
2022/01/15 09:01:15;;;;;;;23.92;8.30;;;5.00;99.90;;;;;;5058248;28;20507;-82
2022/01/15 09:03:42;;;;;;;22.63;8.20;;;5.00;99.90;;;;;;5041908;28;20246;-79
2022/01/15 09:06:08;;;;;;;26.25;7.85;;;5.00;99.90;;;;;;5041965;28;20045;-79
2022/01/15 09:08:34;;;;;;;30.58;9.65;;;4.90;99.90;;;;;;5074974;28;20045;-79
2022/01/15 09:11:00;;;;;;;32.83;10.05;;;5.00;99.90;;;;;;5058151;28;20041;-82
2022/01/15 09:13:26;;;;;;;24.77;8.48;;;5.00;99.90;;;;;;5075246;28;20056;-78
2022/01/15 09:15:52;;;;;;;26.55;8.98;;;5.00;99.90;;;;;;5058315;28;20055;-79
2022/01/15 09:18:19;;;;;;;30.02;9.25;;;5.00;99.90;;;;;;5075034;28;20048;-82
2022/01/15 09:20:46;;;;;;;22.88;8.85;;;5.20;99.90;;;;;;5074729;28;20141;-82
2022/01/15 09:23:12;;;;;;;26.85;8.88;;;4.90;99.90;;;;;;5074337;28;20082;-79
2022/01/15 09:25:38;;;;;;;27.38;8.18;;;5.00;99.90;;;;;;5057856;28;20053;-79
2022/01/15 09:30:49;;;;;;;22.92;8.68;;;5.00;99.90;;;;;;5074586;28;20059;-82
2022/01/15 09:33:15;;;;;;;20.42;7.90;;;5.00;99.90;;;;;;5041224;28;20044;-82
2022/01/15 09:35:41;;;;;;;19.38;7.20;;;5.00;99.90;;;;;;5074655;28;20080;-82
2022/01/15 09:38:07;;;;;;;17.75;6.97;;;5.00;99.90;;;;;;5058074;28;20071;-82
2022/01/15 09:40:34;;;;;;;24.25;7.72;;;4.90;99.90;;;;;;5057670;28;20041;-78
2022/01/15 09:43:00;;;;;;;17.85;7.00;;;4.90;99.90;;;;;;5074361;28;20051;-82
2022/01/15 09:45:27;;;;;;;16.95;6.57;;;5.00;99.90;;;;;;5057795;28;20483;-82
2022/01/15 09:47:58;;;;;;;16.73;6.32;;;4.90;99.90;;;;;;5074135;28;20080;-79
2022/01/15 09:50:26;;;;;;;15.00;5.68;;;4.90;99.90;;;;;;5072845;28;20044;-82
2022/01/15 09:52:56;;;;;;;12.00;5.55;;;4.80;99.90;;;;;;5057477;28;20040;-79
2022/01/15 09:55:22;;;;;;;20.27;7.38;;;4.90;99.90;;;;;;5074010;28;20567;-79
2022/01/15 09:57:49;;;;;;;16.30;7.45;;;4.80;99.90;;;;;;5057243;28;20098;-82
2022/01/15 10:00:18;;;;;;;23.52;7.78;;;4.80;99.90;;;;;;5057134;28;20046;-81
2022/01/15 10:02:45;;;;;;;16.15;7.30;;;4.80;99.90;;;;;;5057425;28;20041;-78
2022/01/15 10:05:13;;;;;;;20.15;7.80;;;4.90;99.90;;;;;;5073667;28;20142;-82
2022/01/15 10:07:57;;;;;;;16.77;6.45;;;4.80;99.90;;;;;;5057312;28;20526;-82
2022/01/15 10:10:24;;;;;;;16.23;7.10;;;4.90;99.90;;;;;;5074219;28;20486;-80
2022/01/15 10:12:51;;;;;;;20.80;8.23;;;4.80;99.90;;;;;;5072574;28;20043;-78
2022/01/15 10:15:17;;;;;;;23.42;8.55;;;4.80;99.90;;;;;;5040170;28;20487;-82
2022/01/15 10:17:43;;;;;;;21.88;8.93;;;4.80;99.90;;;;;;5055917;28;20078;-82
2022/01/15 10:20:10;;;;;;;23.08;8.15;;;4.90;99.90;;;;;;5073287;28;20075;-79
2022/01/15 10:22:42;;;;;;;26.63;9.45;;;4.90;99.90;;;;;;5055460;28;20538;-82
2022/01/15 10:25:13;;;;;;;28.83;10.00;;;4.90;99.90;;;;;;5056668;28;20056;-79
2022/01/15 10:27:47;;;;;;;31.23;10.68;;;4.90;99.90;;;;;;5055908;28;20422;-82
2022/01/15 10:30:17;;;;;;;34.60;11.73;;;5.00;99.90;;;;;;5073172;28;20046;-79
2022/01/15 10:33:08;;;;;;;35.63;12.90;;;5.00;99.90;;;;;;5072242;28;20041;-82
2022/01/15 10:35:42;;;;;;;28.60;11.13;;;5.00;99.90;;;;;;5072512;28;20052;-81
2022/01/15 10:38:09;;;;;;;27.90;11.95;;;5.00;99.90;;;;;;5073051;28;20162;-82
2022/01/15 10:40:39;;;;;;;12.48;6.13;;;5.00;99.90;;;;;;5072652;28;20040;-82
2022/01/15 10:43:05;;;;;;;21.42;10.55;;;4.90;99.90;;;;;;5055497;28;20036;-78
2022/01/15 10:45:34;;;;;;;13.43;5.90;;;4.90;99.90;;;;;;5072552;28;20597;-82
2022/01/15 10:48:02;;;;;;;14.43;8.38;;;4.80;99.90;;;;;;5068081;28;20435;-79
2022/01/15 10:50:30;;;;;;;14.18;7.38;;;4.80;99.90;;;;;;5055756;28;20047;-82
2022/01/15 10:53:04;;;;;;;10.82;5.68;;;4.70;99.90;;;;;;5072234;28;20098;-82
2022/01/15 10:55:33;;;;;;;10.18;4.63;;;4.70;99.90;;;;;;5055357;28;20432;-82
2022/01/15 10:58:07;;;;;;;19.85;9.93;;;4.70;99.90;;;;;;5054726;28;20071;-82
2022/01/15 11:00:36;;;;;;;18.55;9.68;;;4.80;99.90;;;;;;5054289;28;20056;-79
2022/01/15 11:03:04;;;;;;;17.27;9.15;;;4.80;99.90;;;;;;5063263;28;20040;-82
2022/01/15 11:05:36;;;;;;;13.77;7.40;;;4.80;99.90;;;;;;5055633;28;20045;-83
2022/01/15 11:08:20;;;;;;;16.83;7.78;;;4.80;99.90;;;;;;5045679;28;20037;-78
2022/01/15 11:11:06;;;;;;;21.00;9.55;;;4.90;99.90;;;;;;5072070;28;20048;-82
2022/01/15 11:13:34;;;;;;;25.90;10.65;;;4.80;99.90;;;;;;5072021;28;20483;-81
2022/01/15 11:16:04;;;;;;;15.65;7.10;;;4.80;99.90;;;;;;5072426;28;20059;-81
2022/01/15 11:18:34;;;;;;;16.48;8.02;;;4.80;99.90;;;;;;5055000;28;20517;-82
2022/01/15 11:21:03;;;;;;;14.10;7.57;;;4.70;99.90;;;;;;5055653;28;20076;-81
2022/01/15 11:23:31;;;;;;;12.65;5.97;;;4.60;99.90;;;;;;5055072;28;20056;-78
2022/01/15 11:26:00;;;;;;;10.55;5.13;;;4.60;99.90;;;;;;5072775;28;20486;-82
2022/01/15 11:28:29;;;;;;;12.73;6.32;;;4.60;99.90;;;;;;5072286;28;20075;-79
2022/01/15 11:31:14;;;;;;;10.13;5.28;;;4.60;99.90;;;;;;5072063;28;20098;-81
2022/01/15 11:33:47;;;;;;;9.15;4.80;;;4.50;99.90;;;;;;5072195;28;20045;-82
2022/01/15 11:36:34;;;;;;;10.73;5.20;;;4.50;99.90;;;;;;5072043;28;20089;-79
2022/01/15 11:39:08;;;;;;;20.70;9.43;;;4.50;99.90;;;;;;5072442;28;20511;-78
2022/01/15 11:41:43;;;;;;;27.20;11.60;;;4.60;99.90;;;;;;5072022;28;20040;-82
2022/01/15 11:44:36;;;;;;;27.15;12.07;;;4.60;99.90;;;;;;5055309;28;20045;-79
2022/01/15 11:47:21;;;;;;;26.65;11.43;;;4.70;99.90;;;;;;5071931;28;20433;-78
2022/01/15 11:49:49;;;;;;;27.13;11.35;;;4.80;99.90;;;;;;5055370;28;20090;-82
2022/01/15 11:52:17;;;;;;;31.33;12.40;;;4.70;99.90;;;;;;5055005;28;20090;-82
2022/01/15 11:54:49;;;;;;;32.42;13.95;;;4.80;99.90;;;;;;5071495;28;20059;-78
2022/01/15 11:57:32;;;;;;;41.08;14.55;;;4.80;99.90;;;;;;5055513;28;20391;-81
2022/01/15 11:59:59;;;;;;;;;;;4.80;99.90;;;;;;5072459;28;20491;-79
2022/01/15 12:02:34;;;;;;;42.00;15.38;;;5.00;99.90;;;;;;5071654;28;19927;-81
2022/01/15 12:05:15;;;;;;;16.48;8.55;;;4.90;99.90;;;;;;5055604;28;20490;-79
2022/01/15 12:07:41;;;;;;;33.35;14.65;;;4.70;99.90;;;;;;5071772;28;20141;-82
2022/01/15 12:10:12;;;;;;;35.35;13.20;;;4.70;99.90;;;;;;5055098;28;20114;-81
2022/01/15 12:12:47;;;;;;;23.45;8.80;;;4.70;99.90;;;;;;5071114;28;20098;-82
2022/01/15 12:15:17;;;;;;;10.48;5.65;;;4.70;99.90;;;;;;5054874;28;20051;-82
2022/01/15 12:17:54;;;;;;;20.88;10.00;;;4.60;99.90;;;;;;5071465;28;20045;-81
2022/01/15 12:20:21;;;;;;;43.45;16.88;;;4.60;99.90;;;;;;5038196;28;20048;-78
2022/01/15 12:23:01;;;;;;;42.67;15.82;;;4.60;99.90;;;;;;5071327;28;20049;-82
2022/01/15 12:25:27;;;;;;;37.90;13.23;;;4.70;99.90;;;;;;5054475;28;20068;-82
2022/01/15 12:28:02;;;;;;;38.15;14.60;;;4.70;99.90;;;;;;5054719;28;20045;-82
2022/01/15 12:30:29;;;;;;;23.33;10.60;;;4.60;99.90;;;;;;5071290;28;20209;-79
2022/01/15 12:32:57;;;;;;;38.13;14.88;;;4.50;99.90;;;;;;5071369;28;20079;-78
2022/01/15 12:35:29;;;;;;;34.90;14.55;;;4.50;99.90;;;;;;5038416;28;20040;-78
2022/01/15 12:38:07;;;;;;;28.42;11.68;;;4.50;99.90;;;;;;5071309;28;20094;-78
2022/01/15 12:40:52;;;;;;;47.10;16.40;;;4.60;99.90;;;;;;5054623;28;20051;-78
2022/01/15 12:43:25;;;;;;;26.45;10.75;;;4.60;99.90;;;;;;5071304;28;20046;-82
2022/01/15 12:45:52;;;;;;;;;;;4.50;99.90;;;;;;5055032;28;20047;-78
2022/01/15 12:48:21;;;;;;;47.08;14.65;;;4.50;99.90;;;;;;5071246;28;19928;-82
2022/01/15 12:50:56;;;;;;;20.80;8.75;;;4.50;99.90;;;;;;5054750;28;20388;-82
2022/01/15 12:53:25;;;;;;;28.30;11.90;;;4.40;99.90;;;;;;5054663;28;20032;-78
2022/01/15 12:55:51;;;;;;;36.20;13.98;;;4.50;99.90;;;;;;5054777;28;20456;-78
2022/01/15 12:58:28;;;;;;;33.13;14.00;;;4.60;99.90;;;;;;5054369;28;20080;-78
2022/01/15 13:00:55;;;;;;;46.10;15.23;;;4.40;99.90;;;;;;5054642;28;20124;-79
2022/01/15 13:03:24;;;;;;;57.70;16.00;;;4.40;99.90;;;;;;5054322;28;20048;-81
2022/01/15 13:05:53;;;;;;;33.47;13.10;;;4.40;99.90;;;;;;5071069;28;20037;-82
2022/01/15 13:08:28;;;;;;;61.15;19.60;;;4.40;99.90;;;;;;5047688;28;20538;-82